Terminal Aerodrome Forecast
Issued by NWS Grand Forks, ND

Home | Current Version | Previous Version | Graphics & Text | Print | Product List | Glossary On
Versions: 1 2 3 4 5 6 7 8 9 10 11 12 13 14 15 16 17 18 19 20 21
763
FTUS43 KFGF 271234 AAA
TAFFAR
TAF AMD
KFAR 271234Z 2713/2812 VRB02KT 2SM BR SCT015
      TEMPO 2713/2714 1/4SM FG VV002
     FM271400 VRB04KT P6SM SCT015
      TEMPO 2714/2715 3SM BR
     FM271600 VRB03KT P6SM SCT025=

USA.gov is the U.S. government's official web portal to all federal, state and local government web resources and services.